Time;durP1;ratioP1;P1;durP2;ratioP2;P2;SDS_P1;SDS_P2;PMS_P1;PMS_P2;Temp;Humidity;BMP_temperature;BMP_pressure;BME280_temperature;BME280_humidity;BME280_pressure;Samples;Min_cycle;Max_cycle;Signal;HPM_P1;HPM_P2
2021/12/18 00:00:25;;;;;;;2.53;1.08;;;22.90;56.30;;;;;;5045938;28;20742;-49
2021/12/18 00:02:55;;;;;;;2.25;0.80;;;22.90;56.00;;;;;;5046366;28;20266;-46
2021/12/18 00:05:26;;;;;;;2.72;0.80;;;22.90;55.90;;;;;;5048185;28;20226;-59
2021/12/18 00:07:56;;;;;;;2.53;0.65;;;23.00;55.40;;;;;;5049500;28;20195;-44
2021/12/18 00:10:29;;;;;;;2.45;0.70;;;22.90;55.00;;;;;;5044498;28;20488;-47
2021/12/18 00:13:00;;;;;;;2.78;1.10;;;23.00;55.40;;;;;;5041125;28;20730;-46
2021/12/18 00:15:31;;;;;;;4.72;0.90;;;23.00;55.40;;;;;;5045364;28;20255;-42
2021/12/18 00:18:02;;;;;;;3.72;0.80;;;23.00;55.50;;;;;;5046280;28;20202;-46
2021/12/18 00:20:35;;;;;;;1.25;0.70;;;23.00;55.50;;;;;;5045915;28;20227;-55
2021/12/18 00:23:06;;;;;;;4.35;0.90;;;23.00;55.40;;;;;;5049128;28;20314;-59
2021/12/18 00:25:38;;;;;;;3.78;0.93;;;23.00;52.90;;;;;;5048019;28;20314;-52
2021/12/18 00:28:09;;;;;;;1.52;0.80;;;23.00;52.80;;;;;;5047344;28;20282;-50
2021/12/18 00:30:40;;;;;;;3.22;0.88;;;23.00;52.60;;;;;;5046697;28;20314;-46
2021/12/18 00:33:10;;;;;;;2.03;0.70;;;23.00;52.80;;;;;;5046599;28;20250;-50
2021/12/18 00:35:41;;;;;;;1.98;0.90;;;23.00;52.90;;;;;;5046171;28;20769;-49
2021/12/18 00:38:12;;;;;;;4.05;1.00;;;23.00;53.40;;;;;;5045947;28;20205;-42
2021/12/18 00:40:47;;;;;;;2.35;0.90;;;23.00;53.80;;;;;;5050035;28;20299;-44
2021/12/18 00:43:31;;;;;;;1.75;0.80;;;23.00;54.00;;;;;;5048593;28;20273;-54
2021/12/18 00:46:02;;;;;;;2.97;0.85;;;23.10;54.20;;;;;;5046172;28;20753;-52
2021/12/18 00:48:32;;;;;;;1.67;0.63;;;23.10;54.30;;;;;;5045890;28;20199;-40
2021/12/18 00:51:03;;;;;;;1.50;0.60;;;23.20;54.50;;;;;;5045645;28;20278;-41
2021/12/18 00:53:33;;;;;;;2.20;0.90;;;23.10;54.40;;;;;;5042125;28;20967;-46
2021/12/18 00:56:06;;;;;;;3.85;1.00;;;23.10;54.20;;;;;;5046456;28;20330;-60
2021/12/18 00:58:36;;;;;;;12.35;1.80;;;23.20;53.70;;;;;;5046720;28;20227;-55
2021/12/18 01:01:10;;;;;;;6.45;1.33;;;23.20;53.70;;;;;;5048018;28;20682;-44
2021/12/18 01:03:42;;;;;;;4.47;1.38;;;23.20;53.90;;;;;;5044525;28;20223;-52
2021/12/18 01:06:13;;;;;;;7.75;1.35;;;23.20;54.00;;;;;;5040686;28;20222;-57
2021/12/18 01:08:43;;;;;;;4.47;1.20;;;23.30;54.10;;;;;;5044861;28;20611;-54
2021/12/18 01:11:31;;;;;;;3.05;0.82;;;23.30;53.90;;;;;;5044826;28;20292;-55
2021/12/18 01:14:26;;;;;;;2.22;0.85;;;23.30;53.70;;;;;;5043706;28;20240;-45
2021/12/18 01:22:41;;;;;;;3.95;1.10;;;23.30;53.80;;;;;;5045390;28;20253;-44
2021/12/18 01:22:48;;;;;;;1.95;0.90;;;23.30;53.80;;;;;;5046042;28;20227;-39
2021/12/18 01:25:21;;;;;;;2.83;0.90;;;23.30;54.10;;;;;;5047243;28;20219;-42
2021/12/18 01:27:53;;;;;;;3.35;0.90;;;23.30;53.90;;;;;;5046774;28;20305;-52
2021/12/18 01:30:24;;;;;;;2.92;0.77;;;23.40;53.90;;;;;;5044761;28;20939;-45
2021/12/18 01:32:55;;;;;;;2.20;1.10;;;23.40;54.10;;;;;;5045534;28;20311;-39
2021/12/18 01:35:25;;;;;;;2.58;0.90;;;23.40;54.10;;;;;;5043066;28;20749;-39
2021/12/18 01:37:57;;;;;;;3.63;1.27;;;23.40;54.20;;;;;;5043936;28;20287;-39
2021/12/18 01:40:28;;;;;;;3.88;1.20;;;23.40;53.60;;;;;;5046141;28;20206;-50
2021/12/18 01:46:10;;;;;;;11.55;3.47;;;23.50;53.40;;;;;;5048007;28;20226;-50
2021/12/18 01:51:34;;;;;;;20.60;6.65;;;23.50;53.30;;;;;;5046562;28;20229;-45
2021/12/18 01:54:05;;;;;;;9.65;3.35;;;23.50;53.40;;;;;;5043439;28;20200;-52
2021/12/18 01:56:35;;;;;;;8.38;3.17;;;23.50;53.10;;;;;;5043837;28;20298;-52
2021/12/18 01:59:08;;;;;;;7.82;2.67;;;23.50;53.00;;;;;;5043930;28;20274;-53
2021/12/18 02:01:38;;;;;;;7.68;2.40;;;23.50;52.70;;;;;;5044736;28;20232;-55
2021/12/18 02:04:09;;;;;;;5.57;2.20;;;23.50;52.80;;;;;;5044713;28;20290;-56
2021/12/18 02:06:39;;;;;;;5.40;1.80;;;23.50;52.80;;;;;;5045737;28;20298;-50
2021/12/18 02:09:10;;;;;;;6.00;1.90;;;23.60;53.00;;;;;;5044589;28;20294;-52
2021/12/18 02:11:40;;;;;;;5.38;1.55;;;23.50;53.10;;;;;;5042993;28;20877;-49
2021/12/18 02:14:35;;;;;;;3.90;1.65;;;23.60;53.20;;;;;;5044957;28;20231;-54
2021/12/18 02:20:24;;;;;;;3.65;1.30;;;23.70;53.00;;;;;;5001933;28;20254;-52
2021/12/18 02:22:55;;;;;;;3.55;1.33;;;23.70;52.90;;;;;;5002774;28;20221;-57
2021/12/18 02:25:26;;;;;;;5.03;1.55;;;23.70;52.80;;;;;;5027088;28;20289;-55
2021/12/18 02:27:57;;;;;;;3.53;1.50;;;23.70;52.70;;;;;;5044900;28;20209;-58
2021/12/18 02:30:27;;;;;;;3.15;1.45;;;23.70;52.60;;;;;;5046498;28;20286;-59
2021/12/18 02:32:58;;;;;;;3.53;1.33;;;23.80;52.60;;;;;;5044441;28;20766;-54
2021/12/18 02:35:32;;;;;;;4.07;1.48;;;23.80;52.40;;;;;;5044282;28;20251;-56
2021/12/18 02:38:16;;;;;;;4.50;1.40;;;23.80;52.40;;;;;;5043137;28;20722;-55
2021/12/18 02:41:01;;;;;;;1.88;1.23;;;23.80;52.50;;;;;;5039367;28;20210;-54
2021/12/18 02:43:32;;;;;;;2.80;1.50;;;23.80;52.50;;;;;;5053615;22;20751;-54
2021/12/18 02:46:06;;;;;;;3.58;1.20;;;23.80;53.10;;;;;;5043956;28;20312;-51
2021/12/18 02:48:38;;;;;;;3.45;1.30;;;23.80;52.40;;;;;;5044299;28;20196;-53
2021/12/18 02:51:12;;;;;;;2.20;1.10;;;23.90;52.30;;;;;;5043547;28;20381;-54
2021/12/18 02:53:46;;;;;;;1.88;1.20;;;23.90;52.20;;;;;;5042954;28;20231;-54
2021/12/18 02:56:18;;;;;;;1.48;1.05;;;23.90;51.80;;;;;;5044178;28;20745;-55
2021/12/18 02:58:50;;;;;;;2.20;1.10;;;23.90;51.60;;;;;;5045251;28;20230;-53
2021/12/18 03:01:23;;;;;;;1.35;0.88;;;23.90;51.50;;;;;;5043617;28;20206;-52
2021/12/18 03:03:55;;;;;;;1.38;0.88;;;24.00;51.30;;;;;;5042755;28;20331;-54
2021/12/18 03:06:32;;;;;;;1.88;0.60;;;24.00;51.10;;;;;;5044721;28;20230;-52
2021/12/18 03:09:25;;;;;;;2.28;0.75;;;24.00;50.90;;;;;;5044681;28;20192;-51
2021/12/18 03:23:25;;;;;;;2.33;1.10;;;24.20;50.90;;;;;;5010987;28;20219;-53
2021/12/18 03:25:58;;;;;;;2.92;1.45;;;24.20;50.50;;;;;;5042130;28;20219;-54
2021/12/18 03:28:29;;;;;;;2.45;1.02;;;24.20;51.00;;;;;;5043327;28;20750;-55
2021/12/18 03:31:00;;;;;;;4.90;1.15;;;24.20;50.40;;;;;;5041724;28;20303;-55
2021/12/18 03:33:31;;;;;;;2.35;1.27;;;24.20;50.30;;;;;;5043511;28;20248;-54
2021/12/18 03:36:01;;;;;;;3.72;1.25;;;24.20;50.30;;;;;;5044806;28;20247;-54
2021/12/18 03:38:34;;;;;;;3.50;1.00;;;24.20;50.30;;;;;;5045092;28;20281;-52
2021/12/18 03:41:04;;;;;;;3.75;0.98;;;24.20;50.20;;;;;;5040934;28;20570;-53
2021/12/18 03:43:35;;;;;;;2.47;1.00;;;24.30;50.10;;;;;;5038702;28;20679;-50
2021/12/18 03:46:05;;;;;;;1.02;0.60;;;24.30;49.90;;;;;;5042524;28;20318;-54
2021/12/18 03:48:36;;;;;;;1.90;1.00;;;24.30;49.80;;;;;;5042079;28;20287;-47
2021/12/18 03:51:06;;;;;;;1.83;0.82;;;24.30;49.60;;;;;;5043503;28;20286;-49
2021/12/18 03:53:39;;;;;;;1.73;0.82;;;24.30;49.60;;;;;;5045420;28;20199;-53
2021/12/18 03:56:09;;;;;;;1.27;0.90;;;24.30;49.50;;;;;;5046254;28;20248;-54
2021/12/18 03:58:40;;;;;;;1.90;1.30;;;24.30;49.50;;;;;;5041993;28;20295;-51
2021/12/18 04:01:10;;;;;;;1.10;0.90;;;24.40;49.50;;;;;;5043226;28;20231;-53
2021/12/18 04:03:41;;;;;;;1.70;0.88;;;24.40;49.50;;;;;;5044637;28;20310;-53
2021/12/18 04:06:11;;;;;;;1.95;0.90;;;24.40;49.50;;;;;;5043458;28;20304;-53
2021/12/18 04:09:07;;;;;;;3.08;0.98;;;24.50;49.50;;;;;;5048385;28;20257;-51
2021/12/18 04:28:16;;;;;;;1.48;0.73;;;24.60;49.30;;;;;;5032223;28;20235;-52
2021/12/18 04:41:57;;;;;;;1.02;0.65;;;24.60;49.40;;;;;;5049184;28;20198;-53
2021/12/18 04:44:53;;;;;;;0.93;0.60;;;24.70;49.60;;;;;;5056868;28;20199;-53
2021/12/18 05:10:06;;;;;;;2.95;1.10;;;24.80;49.30;;;;;;4956668;28;20210;-51
2021/12/18 05:19:31;;;;;;;0.70;0.57;;;24.80;49.00;;;;;;4963350;28;20266;-51
2021/12/18 05:32:30;;;;;;;2.70;1.00;;;24.80;48.60;;;;;;5042187;28;20240;-52
2021/12/18 05:40:51;;;;;;;1.85;0.80;;;24.90;48.80;;;;;;5066775;28;20213;-53
2021/12/18 05:43:24;;;;;;;2.47;0.85;;;24.90;48.80;;;;;;5081214;28;20207;-54
2021/12/18 05:52:46;;;;;;;1.30;0.57;;;24.90;48.80;;;;;;5081495;28;20195;-53
2021/12/18 05:58:09;;;;;;;3.17;1.02;;;24.90;48.90;;;;;;5069599;28;20278;-57
2021/12/18 06:06:52;;;;;;;0.95;0.68;;;24.80;48.90;;;;;;5086222;28;20210;-54
2021/12/18 06:09:24;;;;;;;2.47;0.80;;;24.80;48.90;;;;;;5070789;28;20222;-54
2021/12/18 06:11:54;;;;;;;1.77;0.93;;;24.90;48.90;;;;;;5072455;28;20195;-54
2021/12/18 06:14:25;;;;;;;2.38;0.75;;;24.80;48.90;;;;;;5075838;28;20277;-52
2021/12/18 06:16:56;;;;;;;1.48;0.93;;;24.80;49.00;;;;;;5082317;28;20759;-54
2021/12/18 06:19:26;;;;;;;1.50;0.77;;;24.80;48.90;;;;;;5071146;28;20757;-55
2021/12/18 06:21:56;;;;;;;1.40;0.70;;;24.80;48.90;;;;;;5069369;28;20195;-48
2021/12/18 06:24:29;;;;;;;1.50;0.73;;;24.90;49.00;;;;;;5071025;28;20282;-50
2021/12/18 06:26:59;;;;;;;2.22;0.98;;;24.80;48.90;;;;;;5070646;28;20301;-54
2021/12/18 06:29:31;;;;;;;2.53;0.77;;;24.80;48.90;;;;;;5074387;28;20287;-52
2021/12/18 06:32:03;;;;;;;1.48;0.90;;;24.90;48.90;;;;;;5077478;28;20211;-52
2021/12/18 06:34:33;;;;;;;2.30;0.80;;;24.80;48.90;;;;;;5048728;28;20747;-51
2021/12/18 06:37:03;;;;;;;2.17;1.08;;;24.90;49.00;;;;;;5049134;28;20661;-53
2021/12/18 06:39:36;;;;;;;2.85;1.00;;;24.80;49.00;;;;;;5049491;28;20283;-49
2021/12/18 06:42:07;;;;;;;2.80;0.98;;;24.80;49.10;;;;;;5049865;28;20735;-49
2021/12/18 06:44:37;;;;;;;2.17;0.82;;;24.90;49.30;;;;;;5049548;28;20231;-52
2021/12/18 06:47:08;;;;;;;1.85;0.85;;;24.80;49.30;;;;;;5055417;23;20247;-60
2021/12/18 06:49:38;;;;;;;1.85;0.80;;;24.80;49.30;;;;;;5041699;28;20713;-60
2021/12/18 06:52:09;;;;;;;3.42;1.00;;;24.80;49.40;;;;;;5042694;28;20739;-60
2021/12/18 06:54:42;;;;;;;1.58;0.90;;;24.80;49.40;;;;;;5047554;28;20279;-59
2021/12/18 06:57:12;;;;;;;1.30;0.60;;;24.70;49.50;;;;;;5028056;28;20303;-51
2021/12/18 06:59:43;;;;;;;2.35;0.85;;;24.70;49.50;;;;;;5025538;28;20736;-60
2021/12/18 07:02:13;;;;;;;2.45;0.82;;;24.70;49.70;;;;;;5025611;28;20628;-60
2021/12/18 07:04:44;;;;;;;1.00;0.65;;;24.70;49.70;;;;;;5023286;28;20628;-59
2021/12/18 07:07:14;;;;;;;1.55;0.80;;;24.70;49.70;;;;;;5025496;28;20279;-49
2021/12/18 07:09:46;;;;;;;1.73;0.90;;;24.70;49.90;;;;;;5026196;28;20207;-40
2021/12/18 07:12:17;;;;;;;3.17;0.93;;;24.70;49.80;;;;;;5027118;28;20747;-55
2021/12/18 07:14:47;;;;;;;1.77;0.73;;;24.70;49.90;;;;;;5026305;28;20287;-58
2021/12/18 07:17:18;;;;;;;2.47;1.20;;;24.70;49.80;;;;;;5025151;28;20307;-51
2021/12/18 07:19:48;;;;;;;1.88;1.10;;;24.70;49.90;;;;;;5012306;28;20319;-49
2021/12/18 07:22:19;;;;;;;1.08;0.73;;;24.70;50.00;;;;;;5023117;28;20283;-54
2021/12/18 07:24:51;;;;;;;1.73;0.77;;;24.70;50.00;;;;;;5022125;28;20633;-55
2021/12/18 07:27:22;;;;;;;1.27;0.73;;;24.60;50.00;;;;;;5025613;28;20287;-59
2021/12/18 07:29:52;;;;;;;2.22;0.80;;;24.60;50.00;;;;;;5027326;28;20279;-60
2021/12/18 07:32:23;;;;;;;1.30;0.80;;;24.60;50.10;;;;;;5025008;28;20235;-60
2021/12/18 07:34:53;;;;;;;2.47;0.82;;;24.60;50.10;;;;;;5025678;28;20896;-58
2021/12/18 07:37:25;;;;;;;1.35;0.60;;;24.60;50.20;;;;;;5024677;28;20263;-57
2021/12/18 07:39:57;;;;;;;2.05;0.70;;;24.50;50.10;;;;;;5024749;28;20291;-60
2021/12/18 07:42:28;;;;;;;2.50;1.00;;;24.50;50.20;;;;;;5023903;28;20304;-57
2021/12/18 07:44:59;;;;;;;2.15;0.70;;;24.50;50.20;;;;;;5028205;28;20279;-57
2021/12/18 07:47:29;;;;;;;1.65;0.60;;;24.50;50.30;;;;;;5025403;28;20200;-60
2021/12/18 07:50:02;;;;;;;1.27;0.70;;;24.50;50.30;;;;;;5023665;28;20283;-61
2021/12/18 07:52:32;;;;;;;2.00;0.88;;;24.50;50.40;;;;;;5018240;28;20196;-60
2021/12/18 07:55:06;;;;;;;1.92;0.80;;;24.40;50.40;;;;;;5022908;28;20659;-57
2021/12/18 07:57:36;;;;;;;1.48;0.70;;;24.40;50.50;;;;;;5024267;28;20312;-60
2021/12/18 08:00:09;;;;;;;2.15;0.90;;;24.40;50.50;;;;;;5025705;28;20641;-60
2021/12/18 08:02:39;;;;;;;2.20;0.90;;;24.30;50.60;;;;;;5026492;28;20290;-60
2021/12/18 08:05:11;;;;;;;1.67;0.85;;;24.30;50.60;;;;;;5024789;28;20295;-49
2021/12/18 08:07:41;;;;;;;1.13;0.80;;;24.30;50.70;;;;;;5021740;28;20770;-51
2021/12/18 08:10:14;;;;;;;1.52;0.80;;;24.30;50.70;;;;;;5022892;28;20283;-60
2021/12/18 08:12:45;;;;;;;1.85;0.93;;;24.20;50.70;;;;;;5021651;28;20287;-60
2021/12/18 08:15:15;;;;;;;1.77;0.88;;;24.20;50.80;;;;;;5022030;28;20454;-58
2021/12/18 08:17:46;;;;;;;1.95;0.73;;;24.20;50.90;;;;;;5023266;28;20311;-60
2021/12/18 08:20:16;;;;;;;2.22;0.95;;;24.20;51.00;;;;;;5025332;28;20291;-58
2021/12/18 08:22:47;;;;;;;1.40;1.00;;;24.10;51.00;;;;;;5014046;28;20673;-56
2021/12/18 08:25:19;;;;;;;3.85;1.13;;;24.10;51.20;;;;;;5023684;28;20303;-61
2021/12/18 08:27:49;;;;;;;3.00;0.98;;;24.00;51.10;;;;;;5023329;28;20291;-60
2021/12/18 08:30:20;;;;;;;3.33;1.05;;;24.00;51.20;;;;;;5023665;28;20232;-60
2021/12/18 08:32:50;;;;;;;3.72;1.00;;;24.00;51.20;;;;;;5026082;28;20287;-60
2021/12/18 08:35:21;;;;;;;3.90;1.15;;;24.00;51.30;;;;;;5026663;28;20304;-60
2021/12/18 08:37:51;;;;;;;3.05;1.20;;;23.90;51.30;;;;;;5024401;28;20315;-57
2021/12/18 08:40:24;;;;;;;3.17;1.20;;;23.90;51.40;;;;;;5022491;28;20196;-58
2021/12/18 08:42:55;;;;;;;3.95;0.98;;;23.90;51.50;;;;;;5024343;28;20287;-60
2021/12/18 08:45:25;;;;;;;3.25;1.10;;;23.90;51.60;;;;;;5022386;28;20315;-46
2021/12/18 08:47:56;;;;;;;3.28;1.10;;;23.90;51.70;;;;;;5023230;28;20239;-39
2021/12/18 08:50:27;;;;;;;3.95;1.50;;;23.80;51.70;;;;;;5026733;28;20199;-45
2021/12/18 08:52:57;;;;;;;2.38;1.13;;;23.80;51.80;;;;;;5025376;28;20318;-59
2021/12/18 08:55:30;;;;;;;2.85;1.10;;;23.80;51.80;;;;;;5024445;28;20250;-49
2021/12/18 08:58:00;;;;;;;3.10;1.35;;;23.80;51.90;;;;;;5024152;28;20311;-44
2021/12/18 09:00:32;;;;;;;3.55;1.50;;;23.70;51.90;;;;;;5023452;28;20649;-41
2021/12/18 09:03:02;;;;;;;3.13;1.45;;;23.70;52.10;;;;;;5022587;28;20208;-44
2021/12/18 09:05:33;;;;;;;3.78;1.60;;;23.70;52.10;;;;;;5023528;28;20296;-42
2021/12/18 09:08:03;;;;;;;3.35;1.50;;;23.60;52.10;;;;;;5024961;28;20280;-40
2021/12/18 09:10:36;;;;;;;3.88;1.80;;;23.60;52.20;;;;;;5025981;28;20283;-44
2021/12/18 09:13:06;;;;;;;2.40;1.48;;;23.60;52.30;;;;;;5022328;28;20310;-47
2021/12/18 09:15:37;;;;;;;3.55;1.83;;;23.60;52.40;;;;;;5023049;28;20302;-44
2021/12/18 09:18:07;;;;;;;2.75;1.80;;;23.50;52.50;;;;;;5024241;28;20770;-44
2021/12/18 09:20:41;;;;;;;3.08;1.90;;;23.50;52.60;;;;;;5024624;28;20292;-60
2021/12/18 09:23:13;;;;;;;3.85;1.60;;;23.50;52.70;;;;;;5026028;28;20208;-51
2021/12/18 09:25:45;;;;;;;2.47;1.65;;;23.50;52.70;;;;;;5028292;28;20246;-57
2021/12/18 09:28:16;;;;;;;2.05;1.63;;;23.50;52.80;;;;;;5029799;28;20275;-41
2021/12/18 09:30:46;;;;;;;3.75;1.80;;;23.40;52.80;;;;;;5026129;28;20284;-50
2021/12/18 09:33:18;;;;;;;2.72;1.50;;;23.40;52.80;;;;;;5011048;28;20203;-48
2021/12/18 09:35:49;;;;;;;1.80;1.27;;;23.40;52.90;;;;;;5008527;28;20228;-51
2021/12/18 09:38:19;;;;;;;2.38;1.42;;;23.40;52.90;;;;;;5002543;28;20221;-48
2021/12/18 09:40:52;;;;;;;2.47;1.35;;;23.30;52.80;;;;;;5027927;28;20612;-50
2021/12/18 09:43:24;;;;;;;2.72;1.38;;;23.30;52.90;;;;;;5012203;28;20284;-56
2021/12/18 09:45:54;;;;;;;3.20;1.58;;;23.30;52.90;;;;;;4999030;28;20590;-51
2021/12/18 09:48:26;;;;;;;2.88;1.40;;;23.30;53.00;;;;;;5010534;28;20293;-53
2021/12/18 09:50:58;;;;;;;2.67;1.63;;;23.30;53.00;;;;;;5011849;28;20284;-51
2021/12/18 09:53:29;;;;;;;2.75;1.40;;;23.20;53.00;;;;;;5010717;28;20652;-52
2021/12/18 09:56:01;;;;;;;2.78;1.45;;;23.20;53.00;;;;;;5011751;28;20300;-52
2021/12/18 09:58:31;;;;;;;2.60;1.40;;;23.20;53.10;;;;;;5012112;28;20323;-61
2021/12/18 10:01:02;;;;;;;2.03;1.33;;;23.10;53.10;;;;;;5018905;28;20276;-59
2021/12/18 10:03:48;;;;;;;2.20;1.30;;;23.10;53.20;;;;;;5011143;28;20287;-62
2021/12/18 10:06:38;;;;;;;3.13;1.40;;;23.10;53.80;;;;;;5011218;28;20220;-52
2021/12/18 10:09:10;;;;;;;2.22;1.20;;;23.10;53.20;;;;;;5019578;28;20204;-57
2021/12/18 10:11:50;;;;;;;2.35;1.40;;;23.10;53.30;;;;;;5007185;28;20212;-61
2021/12/18 10:14:22;;;;;;;3.75;1.30;;;23.00;53.20;;;;;;5000719;28;20279;-55
2021/12/18 10:16:54;;;;;;;1.67;1.33;;;23.00;53.20;;;;;;5009473;28;20303;-60
2021/12/18 10:19:29;;;;;;;2.55;1.60;;;23.00;53.30;;;;;;5011891;28;20886;-55
2021/12/18 10:22:02;;;;;;;2.55;1.33;;;23.00;53.30;;;;;;5010876;28;20284;-59
2021/12/18 10:24:34;;;;;;;1.85;1.17;;;23.00;53.30;;;;;;4997518;28;20289;-61
2021/12/18 10:27:19;;;;;;;2.45;1.25;;;22.90;53.30;;;;;;5018360;28;20758;-61
2021/12/18 10:29:51;;;;;;;1.48;1.23;;;22.90;53.30;;;;;;5012936;28;20197;-56
2021/12/18 10:32:23;;;;;;;2.10;1.30;;;22.90;53.40;;;;;;5010433;28;20225;-54
2021/12/18 10:34:55;;;;;;;1.88;1.30;;;22.90;53.40;;;;;;5011163;28;20331;-55
2021/12/18 10:37:27;;;;;;;1.85;1.00;;;22.90;53.50;;;;;;5024970;28;20629;-61
2021/12/18 10:40:03;;;;;;;2.17;1.30;;;22.80;53.40;;;;;;5011475;28;20280;-55
2021/12/18 10:42:39;;;;;;;1.67;1.10;;;22.80;53.50;;;;;;5010940;28;20285;-62
2021/12/18 10:45:14;;;;;;;2.00;1.10;;;22.80;53.50;;;;;;5009500;28;20220;-55
2021/12/18 10:47:54;;;;;;;1.92;1.25;;;22.80;53.50;;;;;;5020473;28;20742;-57
2021/12/18 10:50:31;;;;;;;1.23;1.10;;;22.70;53.50;;;;;;5020711;28;20676;-56
2021/12/18 10:53:05;;;;;;;2.45;1.08;;;22.70;53.50;;;;;;5018874;28;20223;-58
2021/12/18 10:55:42;;;;;;;1.45;1.20;;;22.70;53.60;;;;;;5009870;28;20248;-61
2021/12/18 10:58:17;;;;;;;2.40;1.30;;;22.70;53.60;;;;;;5009564;28;20652;-55
2021/12/18 11:00:57;;;;;;;1.85;1.15;;;22.60;53.60;;;;;;4992240;28;20272;-55
2021/12/18 11:03:32;;;;;;;2.25;1.20;;;22.70;53.70;;;;;;5009973;28;20259;-58
2021/12/18 11:06:11;;;;;;;1.33;1.20;;;22.60;53.60;;;;;;5024209;28;20258;-62
2021/12/18 11:08:56;;;;;;;2.42;1.20;;;22.60;53.70;;;;;;5012448;28;20284;-56
2021/12/18 11:14:17;;;;;;;2.20;1.15;;;22.50;53.70;;;;;;5009160;28;20335;-55
2021/12/18 11:16:50;;;;;;;2.55;1.00;;;22.60;53.80;;;;;;5008086;28;20252;-51
2021/12/18 11:19:23;;;;;;;4.05;1.55;;;22.50;53.70;;;;;;5009210;28;20331;-50
2021/12/18 11:21:55;;;;;;;2.05;1.00;;;22.50;53.80;;;;;;4997045;28;20631;-59
2021/12/18 11:24:31;;;;;;;1.40;1.05;;;22.50;53.80;;;;;;4991998;28;20280;-58
2021/12/18 11:27:03;;;;;;;1.50;1.27;;;22.40;53.70;;;;;;4995029;28;20224;-52
2021/12/18 11:29:41;;;;;;;1.05;0.82;;;22.40;53.80;;;;;;5019774;28;20295;-44
2021/12/18 11:32:14;;;;;;;1.35;0.82;;;22.40;53.80;;;;;;5012566;28;20204;-53
2021/12/18 11:34:46;;;;;;;1.70;1.15;;;22.40;53.80;;;;;;5003867;28;20289;-55
2021/12/18 11:37:18;;;;;;;1.58;1.15;;;22.40;53.80;;;;;;4998246;28;20599;-52
2021/12/18 11:39:49;;;;;;;1.95;0.90;;;22.40;53.90;;;;;;5008238;28;20243;-58
2021/12/18 11:42:20;;;;;;;1.17;0.98;;;22.30;53.90;;;;;;5009424;28;20243;-58
2021/12/18 11:44:59;;;;;;;2.08;0.90;;;22.30;53.90;;;;;;5009414;28;20280;-47
2021/12/18 11:47:35;;;;;;;0.80;0.80;;;22.30;53.90;;;;;;5008887;28;20283;-52
2021/12/18 11:50:09;;;;;;;2.00;1.00;;;22.30;53.90;;;;;;5009594;28;20254;-56
2021/12/18 11:53:02;;;;;;;0.93;0.80;;;22.20;53.90;;;;;;5009188;28;20294;-56
2021/12/18 11:55:34;;;;;;;1.67;1.15;;;22.20;54.00;;;;;;5009193;28;20256;-58
2021/12/18 11:58:12;;;;;;;1.00;0.90;;;22.20;54.00;;;;;;5009819;28;20221;-50
2021/12/18 12:00:51;;;;;;;1.48;0.93;;;22.20;54.00;;;;;;5008349;28;20283;-55
2021/12/18 12:03:38;;;;;;;2.67;0.90;;;22.20;54.10;;;;;;5018221;28;20197;-60
2021/12/18 12:06:32;;;;;;;2.05;1.10;;;22.20;54.10;;;;;;4991915;28;20276;-61
2021/12/18 12:09:34;;;;;;;2.15;1.13;;;22.10;54.10;;;;;;5007064;28;20642;-54
2021/12/18 12:12:06;;;;;;;1.10;1.00;;;22.10;54.10;;;;;;4950811;28;20259;-54
2021/12/18 12:14:41;;;;;;;3.42;1.10;;;22.10;54.10;;;;;;4993405;28;20280;-61
2021/12/18 12:17:21;;;;;;;0.88;0.85;;;22.10;54.20;;;;;;5009151;28;20873;-55
2021/12/18 12:20:09;;;;;;;1.35;1.00;;;22.10;54.30;;;;;;5019416;28;20227;-62
2021/12/18 12:23:02;;;;;;;1.52;0.90;;;22.10;54.30;;;;;;5011149;28;20296;-59
2021/12/18 12:25:41;;;;;;;1.33;0.85;;;22.00;54.20;;;;;;5017270;28;20231;-62
2021/12/18 12:28:14;;;;;;;1.38;0.80;;;22.00;54.20;;;;;;5013638;28;20204;-56
2021/12/18 12:30:47;;;;;;;1.67;1.20;;;22.00;54.30;;;;;;5008561;28;20280;-62
2021/12/18 12:33:31;;;;;;;0.88;0.63;;;22.00;54.30;;;;;;5009069;28;20287;-53
2021/12/18 12:36:06;;;;;;;1.55;0.90;;;22.00;54.40;;;;;;5009644;28;20770;-53
2021/12/18 12:38:40;;;;;;;0.80;0.80;;;22.00;54.40;;;;;;5007556;28;20230;-55
2021/12/18 12:41:36;;;;;;;2.17;0.95;;;21.90;54.40;;;;;;5008976;28;20304;-60
2021/12/18 12:44:15;;;;;;;1.20;0.85;;;21.90;54.50;;;;;;5011493;28;20283;-60
2021/12/18 12:46:47;;;;;;;1.35;1.00;;;21.90;54.40;;;;;;4996281;28;20312;-52
2021/12/18 12:49:22;;;;;;;1.85;0.93;;;21.90;54.40;;;;;;4997243;28;20284;-56
2021/12/18 12:52:11;;;;;;;1.08;0.98;;;21.90;54.40;;;;;;5001469;28;20319;-47
2021/12/18 12:54:57;;;;;;;1.88;1.10;;;21.80;54.40;;;;;;5007477;28;20239;-56
2021/12/18 12:57:43;;;;;;;1.98;0.90;;;21.80;54.40;;;;;;5012075;28;20196;-49
2021/12/18 13:00:45;;;;;;;1.00;0.70;;;21.80;54.40;;;;;;5023538;28;20683;-61
2021/12/18 13:03:25;;;;;;;0.93;0.85;;;21.80;54.40;;;;;;4992740;28;20287;-55
2021/12/18 13:06:16;;;;;;;0.80;0.80;;;21.70;54.40;;;;;;4997843;28;20717;-53
2021/12/18 13:08:48;;;;;;;1.90;1.10;;;21.70;54.40;;;;;;5011824;28;20691;-60
2021/12/18 13:11:26;;;;;;;1.73;1.02;;;21.70;54.40;;;;;;5006326;28;20224;-59
2021/12/18 13:13:57;;;;;;;0.80;0.70;;;21.70;54.40;;;;;;5013336;28;20280;-62
2021/12/18 13:16:28;;;;;;;1.30;0.98;;;21.70;54.50;;;;;;5011576;28;20299;-63
2021/12/18 13:19:00;;;;;;;1.75;0.90;;;21.70;54.50;;;;;;5011572;28;20304;-58
2021/12/18 13:21:35;;;;;;;2.00;0.95;;;21.60;54.50;;;;;;5007190;28;20288;-62
2021/12/18 13:24:07;;;;;;;1.77;0.90;;;21.60;54.50;;;;;;5000330;28;20202;-62
2021/12/18 13:26:38;;;;;;;1.40;1.00;;;21.60;54.50;;;;;;4999122;28;20304;-56
2021/12/18 13:29:11;;;;;;;1.02;0.75;;;21.60;54.50;;;;;;4996263;28;20637;-56
2021/12/18 13:31:47;;;;;;;1.92;1.00;;;21.60;54.50;;;;;;5012796;28;20626;-53
2021/12/18 13:34:20;;;;;;;1.77;1.00;;;21.60;54.50;;;;;;5012237;28;20231;-52
2021/12/18 13:36:54;;;;;;;1.40;0.95;;;21.50;54.50;;;;;;5009511;28;20221;-56
2021/12/18 13:39:27;;;;;;;1.45;1.05;;;21.50;54.50;;;;;;5011047;28;20219;-54
2021/12/18 13:42:10;;;;;;;1.00;0.90;;;21.50;54.50;;;;;;5008624;28;20208;-62
2021/12/18 13:44:49;;;;;;;1.02;0.82;;;21.50;54.60;;;;;;5000656;28;21588;-61
2021/12/18 13:47:25;;;;;;;1.20;0.77;;;21.50;54.60;;;;;;5012202;28;20280;-61
2021/12/18 13:50:05;;;;;;;1.23;0.82;;;21.40;54.60;;;;;;5012330;28;20236;-57
2021/12/18 13:52:41;;;;;;;1.20;0.93;;;21.40;54.60;;;;;;5012533;28;20712;-56
2021/12/18 13:55:33;;;;;;;2.28;1.08;;;21.40;54.60;;;;;;5010702;28;20255;-62
2021/12/18 13:58:10;;;;;;;1.55;0.93;;;21.40;54.60;;;;;;4998763;28;20292;-62
2021/12/18 14:00:58;;;;;;;1.20;1.00;;;21.40;54.60;;;;;;5009295;28;20735;-62
2021/12/18 14:03:31;;;;;;;1.75;0.75;;;21.30;54.60;;;;;;5006710;28;20566;-53
2021/12/18 14:06:04;;;;;;;1.25;0.82;;;21.30;54.60;;;;;;5011011;28;20300;-61
2021/12/18 14:08:38;;;;;;;1.42;1.05;;;21.30;54.60;;;;;;5009279;28;20671;-61
2021/12/18 14:11:10;;;;;;;1.88;1.00;;;21.30;54.70;;;;;;5010882;28;20207;-55
2021/12/18 14:13:49;;;;;;;1.17;0.60;;;21.30;54.70;;;;;;4995194;28;20280;-58
2021/12/18 14:16:20;;;;;;;1.77;0.90;;;21.30;54.70;;;;;;4993469;28;20668;-54
2021/12/18 14:18:57;;;;;;;1.55;1.00;;;21.20;54.70;;;;;;5005920;28;20315;-53
2021/12/18 14:21:42;;;;;;;2.08;0.82;;;21.20;54.80;;;;;;5009655;28;20291;-61
2021/12/18 14:24:15;;;;;;;1.48;1.00;;;21.20;54.70;;;;;;5011525;28;20306;-58
2021/12/18 14:26:59;;;;;;;1.90;0.95;;;21.20;54.80;;;;;;5016063;28;20255;-56
2021/12/18 14:29:32;;;;;;;1.00;0.90;;;21.20;54.80;;;;;;5020384;28;20228;-53
2021/12/18 14:32:03;;;;;;;1.15;0.80;;;21.20;54.80;;;;;;5011197;28;20197;-53
2021/12/18 14:34:35;;;;;;;1.33;0.90;;;21.10;54.80;;;;;;5011192;28;20287;-62
2021/12/18 14:37:11;;;;;;;1.02;0.80;;;21.10;54.80;;;;;;5011696;28;20307;-56
2021/12/18 14:39:54;;;;;;;1.17;0.80;;;21.10;54.80;;;;;;4997081;28;20263;-43
2021/12/18 14:42:31;;;;;;;1.80;0.93;;;21.10;54.90;;;;;;5012930;28;20201;-61
2021/12/18 14:45:03;;;;;;;1.75;0.80;;;21.10;54.80;;;;;;5009281;28;20201;-53
2021/12/18 14:47:35;;;;;;;1.65;0.80;;;21.10;54.80;;;;;;5013896;28;20299;-61
2021/12/18 14:50:17;;;;;;;1.30;0.90;;;21.00;54.80;;;;;;5012209;28;20312;-56
2021/12/18 14:53:12;;;;;;;0.85;0.65;;;21.00;54.90;;;;;;5010610;28;20307;-57
2021/12/18 14:55:52;;;;;;;1.05;0.70;;;21.00;54.90;;;;;;5022961;28;20218;-55
2021/12/18 14:58:24;;;;;;;1.10;0.80;;;21.00;54.90;;;;;;5011197;28;20660;-61
2021/12/18 15:00:58;;;;;;;1.42;0.88;;;21.00;54.90;;;;;;5028316;28;20287;-45
2021/12/18 15:03:33;;;;;;;2.00;1.08;;;21.00;54.90;;;;;;4998963;28;20193;-52
2021/12/18 15:06:09;;;;;;;1.98;0.77;;;21.00;55.00;;;;;;5008467;28;20231;-59
2021/12/18 15:08:47;;;;;;;1.05;0.80;;;20.90;54.90;;;;;;5009648;28;20262;-56
2021/12/18 15:11:23;;;;;;;1.38;1.00;;;20.90;54.90;;;;;;5010602;28;20197;-56
2021/12/18 15:13:55;;;;;;;1.10;0.80;;;20.90;55.00;;;;;;5009278;28;20291;-56
2021/12/18 15:16:32;;;;;;;1.20;0.60;;;20.90;54.90;;;;;;5008931;28;20308;-57